Metar z pełnej godziny Komunikat METAR ze strony awiacja.imgw.pl Metar G00 EPWA METAR EPWA 240500Z 16009KT 9999 BKN029 M04/M06 Q1024 NOSIG=